This is the latest recevied weather packets stored in our database for station/object N2RFA-13. If no packets are shown the sender has not sent any weather packets the latest 10 day(s).
| Time | Temp. | Humidity | Pressure | Rain* | Wind** | Luminosity | Snow |
|---|---|---|---|---|---|---|---|
| 1777934715 | 19.44° C | 42% | 1009.8 hPa | 0 mm | - | - | - |
| 1777929308 | 20.56° C | 39% | 1010.4 hPa | 0 mm | - | - | - |
| 1777920357 | 21.11° C | 36% | 1011.2 hPa | 0 mm | - | - | - |
| 1777919457 | 21.11° C | 36% | 1011.4 hPa | 0 mm | - | - | - |
| 1777918559 | 21.11° C | 36% | 1011.7 hPa | 0 mm | - | - | - |
| 1777917654 | 21.11° C | 36% | 1011.7 hPa | 0 mm | - | - | - |
| 1777916752 | 21.11° C | 37% | 1011.9 hPa | 0 mm | - | - | - |
| 1777915851 | 21.11° C | 36% | 1012.1 hPa | 0 mm | - | - | - |
| 1777912256 | 21.11° C | 37% | 1013 hPa | 0 mm | - | - | - |
| 1777911341 | 20.56° C | 35% | 1013.2 hPa | 0 mm | - | - | - |
| 1777904123 | 17.22° C | 39% | 1014.3 hPa | 0 mm | - | - | - |
| 1777901413 | 15.56° C | 44% | 1014.5 hPa | 0 mm | - | - | - |
| 1777897875 | 12.22° C | 50% | 1015.2 hPa | 0 mm | - | - | - |
| 1777894254 | 5.56° C | 85% | 1015.2 hPa | 0 mm | - | - | - |
| 1777893336 | 3.89° C | 86% | 1015.2 hPa | 0 mm | - | - | - |
| 1777890633 | 2.78° C | 86% | 1015.2 hPa | 0 mm | - | - | - |
| 1777889739 | 2.22° C | 86% | 1015.3 hPa | 0 mm | - | - | - |
| 1777886127 | 2.78° C | 85% | 1014.9 hPa | 0 mm | - | - | - |
| 1777883426 | 3.33° C | 85% | 1014.9 hPa | 0 mm | - | - | - |
| 1777882528 | 3.33° C | 85% | 1014.8 hPa | 0 mm | - | - | - |
| 1777880732 | 2.78° C | 84% | 1014.7 hPa | 0 mm | - | - | - |
| 1777879828 | 2.78° C | 84% | 1014.7 hPa | 0 mm | - | - | - |
| 1777878922 | 2.78° C | 84% | 1014.6 hPa | 0 mm | - | - | - |
| 1777878021 | 2.78° C | 83% | 1014.5 hPa | 0 mm | - | - | - |
| 1777876221 | 2.78° C | 82% | 1014.5 hPa | 0 mm | - | - | - |
* Rain latest hour (hover to see other rain measurements)
** Current wind speed in m/s (hover to see current wind gust speed)